EBFN

Koksijde Air Base Airport

Koksijde, Belgium
METAR EBFN 232319Z AUTO 24014KT 3200 -RA BKN010/// BKN029/// 11/11 Q1018 YLO
Observed Flight Rules
Jan-23 @ 23:19 UTC (27 minutes ago) Instrument Flight Rules
Wind Visibility Clouds Conditions
240° at 14 knots 3,203 meters
  • Broken at 1,000' AGL
  • Broken at 2,900' AGL
  • Light Rain
Temperatures Readings
Current 11°C / 52°F
Dewpoint 11°C / 52°F
Humidity 100%
Altimeter 30.06" Hg
Pressure 1018 hPa
Elevation 9
METAR EBFN 232319Z AUTO 24014KT 3200 -RA BKN010/// BKN029/// 11/11 Q1018 YLO
Observed Flight Rules
Jan-23 @ 23:19 UTC
(27 minutes ago)
IFR
Wind Visibility
240° at 14 knots 3,203 meters
Clouds
  • Broken at 1,000' AGL
  • Broken at 2,900' AGL
Conditions
  • Light Rain
Temperature Dewpoint
11°C / 52°F 11°C / 52°F
Humidity Altimeter Pressure
100% 30.06" Hg 1018 hPa